Time;durP1;ratioP1;P1;durP2;ratioP2;P2;SDS_P1;SDS_P2;PMS_P1;PMS_P2;Temp;Humidity;BMP_temperature;BMP_pressure;BME280_temperature;BME280_humidity;BME280_pressure;Samples;Min_cycle;Max_cycle;Signal;HPM_P1;HPM_P2
2022/11/13 00:02:25;;;;;;;;;;;5.40;90.80;;;;;;4997171;28;19909;-43
2022/11/13 00:04:53;;;;;;;;;;;5.40;90.80;;;;;;4996871;28;20080;-42
2022/11/13 00:07:19;;;;;;;;;;;5.40;90.80;;;;;;5016470;28;19956;-43
2022/11/13 00:09:48;;;;;;;;;;;5.40;91.00;;;;;;5015118;28;19929;-44
2022/11/13 00:12:15;;;;;;;;;;;5.40;91.00;;;;;;5012991;28;20434;-42
2022/11/13 00:14:45;;;;;;;;;;;5.40;91.00;;;;;;4996983;28;19910;-44
2022/11/13 00:17:11;;;;;;;;;;;5.50;91.10;;;;;;5004019;28;19909;-44
2022/11/13 00:19:36;;;;;;;;;;;5.50;91.10;;;;;;5015993;28;19921;-45
2022/11/13 00:22:03;;;;;;;;;;;5.50;91.20;;;;;;5014913;28;20044;-43
2022/11/13 00:24:29;;;;;;;;;;;5.50;91.20;;;;;;5014985;28;19909;-43
2022/11/13 00:26:56;;;;;;;;;;;5.60;91.20;;;;;;4999191;28;19920;-44
2022/11/13 00:29:22;;;;;;;;;;;5.60;91.20;;;;;;5010832;28;19909;-45
2022/11/13 00:31:49;;;;;;;;;;;5.60;91.20;;;;;;4996576;28;19997;-43
2022/11/13 00:34:15;;;;;;;;;;;5.60;91.20;;;;;;4996106;28;19977;-44
2022/11/13 00:36:42;;;;;;;;;;;5.60;91.30;;;;;;5012489;28;20338;-44
2022/11/13 00:39:11;;;;;;;;;;;5.60;91.30;;;;;;5015259;28;19941;-43
2022/11/13 00:41:38;;;;;;;;;;;5.60;91.30;;;;;;5016065;28;19917;-44
2022/11/13 00:44:04;;;;;;;;;;;5.60;91.40;;;;;;4997810;28;20350;-43
2022/11/13 00:46:30;;;;;;;;;;;5.60;91.40;;;;;;5010311;28;19909;-43
2022/11/13 00:48:58;;;;;;;;;;;5.60;91.40;;;;;;5010675;28;19937;-44
2022/11/13 00:51:26;;;;;;;;;;;5.60;91.30;;;;;;5007840;28;19920;-43
2022/11/13 00:53:53;;;;;;;;;;;5.60;91.40;;;;;;5015334;28;19906;-43
2022/11/13 00:56:20;;;;;;;;;;;5.60;91.40;;;;;;5004009;28;20385;-43
2022/11/13 00:58:46;;;;;;;;;;;5.60;91.40;;;;;;4995246;28;19911;-43
2022/11/13 01:01:20;;;;;;;;;;;5.70;91.40;;;;;;4995785;28;20319;-43
2022/11/13 01:03:49;;;;;;;;;;;5.60;91.40;;;;;;5006996;28;20366;-43
2022/11/13 01:06:33;;;;;;;;;;;5.70;91.50;;;;;;5014113;28;19909;-43
2022/11/13 01:09:00;;;;;;;;;;;5.70;91.50;;;;;;5015458;28;19905;-45
2022/11/13 01:11:29;;;;;;;;;;;5.70;91.50;;;;;;5000160;28;19948;-43
2022/11/13 01:13:56;;;;;;;;;;;5.70;91.50;;;;;;5000348;28;20012;-44
2022/11/13 01:16:24;;;;;;;;;;;5.70;91.60;;;;;;4999549;28;19909;-43
2022/11/13 01:18:54;;;;;;;;;;;5.70;91.60;;;;;;4994326;28;19922;-43
2022/11/13 01:21:22;;;;;;;;;;;5.80;91.70;;;;;;5000601;28;19968;-44
2022/11/13 01:23:49;;;;;;;;;;;5.80;91.70;;;;;;5013875;28;19932;-43
2022/11/13 01:26:23;;;;;;;;;;;5.80;91.70;;;;;;5008037;28;19968;-44
2022/11/13 01:28:52;;;;;;;;;;;5.90;91.70;;;;;;5010948;28;19975;-43
2022/11/13 01:31:22;;;;;;;;;;;5.90;91.80;;;;;;5001988;28;19913;-44
2022/11/13 01:33:50;;;;;;;;;;;5.90;91.80;;;;;;5014907;28;19917;-43
2022/11/13 01:36:22;;;;;;;;;;;5.90;91.90;;;;;;5006573;28;19913;-43
2022/11/13 01:38:52;;;;;;;;;;;5.90;91.90;;;;;;4995119;28;19993;-44
2022/11/13 01:41:21;;;;;;;;;;;5.90;91.80;;;;;;5001416;28;19913;-43
2022/11/13 01:43:50;;;;;;;;;;;6.00;92.00;;;;;;5014718;28;19955;-43
2022/11/13 01:46:24;;;;;;;;;;;5.90;91.90;;;;;;5009314;28;19909;-44
2022/11/13 01:48:58;;;;;;;;;;;5.90;91.90;;;;;;4995098;28;19909;-43
2022/11/13 01:51:30;;;;;;;;;;;5.90;91.80;;;;;;5001874;28;19959;-44
2022/11/13 01:53:56;;;;;;;;;;;5.90;91.80;;;;;;5010442;28;19909;-44
2022/11/13 01:56:23;;;;;;;;;;;6.00;91.90;;;;;;5002330;28;19920;-43
2022/11/13 01:58:56;;;;;;;;;;;5.90;91.90;;;;;;5011093;28;20319;-43
2022/11/13 02:01:23;;;;;;;;;;;5.90;92.00;;;;;;5012422;28;19914;-46
2022/11/13 02:03:50;;;;;;;;;;;6.00;92.00;;;;;;5012292;28;20240;-43
2022/11/13 02:06:18;;;;;;;;;;;6.00;92.00;;;;;;5011758;28;19967;-44
2022/11/13 02:08:45;;;;;;;;;;;6.00;92.10;;;;;;5012441;28;19949;-43
2022/11/13 02:11:12;;;;;;;;;;;6.00;92.00;;;;;;5010670;28;19909;-43
2022/11/13 02:13:38;;;;;;;;;;;6.10;92.10;;;;;;5014202;28;19967;-44
2022/11/13 02:16:06;;;;;;;;;;;6.00;92.10;;;;;;5005884;28;19914;-44
2022/11/13 02:18:35;;;;;;;;;;;6.10;92.20;;;;;;4998868;28;19924;-44
2022/11/13 02:21:20;;;;;;;;;;;6.10;92.30;;;;;;5013157;28;19921;-43
2022/11/13 02:23:55;;;;;;;;;;;6.10;92.30;;;;;;5011122;28;19913;-43
2022/11/13 02:26:24;;;;;;;;;;;6.20;92.40;;;;;;5014017;28;19963;-44
2022/11/13 02:28:51;;;;;;;;;;;6.20;92.50;;;;;;5012972;28;19905;-44
2022/11/13 02:31:17;;;;;;;;;;;6.30;92.70;;;;;;5011518;28;19932;-44
2022/11/13 02:33:44;;;;;;;;;;;6.30;92.70;;;;;;4994251;28;19911;-43
2022/11/13 02:36:11;;;;;;;;;;;6.40;92.80;;;;;;4993846;28;19909;-45
2022/11/13 02:38:42;;;;;;;;;;;6.40;92.90;;;;;;5012074;28;19940;-43
2022/11/13 02:41:08;;;;;;;;;;;6.50;93.00;;;;;;4994113;28;20004;-44
2022/11/13 02:43:34;;;;;;;;;;;6.50;93.00;;;;;;5008731;28;19912;-44
2022/11/13 02:46:00;;;;;;;;;;;6.60;92.90;;;;;;5013602;28;19916;-43
2022/11/13 02:48:28;;;;;;;;;;;6.60;93.00;;;;;;5012092;28;19944;-44
2022/11/13 02:50:54;;;;;;;;;;;6.60;93.00;;;;;;5013441;28;19913;-44
2022/11/13 02:53:20;;;;;;;;;;;6.60;93.00;;;;;;5010832;28;19916;-44
2022/11/13 02:55:47;;;;;;;;;;;6.60;92.90;;;;;;5013601;28;20369;-44
2022/11/13 02:58:14;;;;;;;;;;;6.60;92.90;;;;;;5008554;28;19924;-44
2022/11/13 03:00:41;;;;;;;;;;;6.50;92.90;;;;;;4993533;28;19910;-44
2022/11/13 03:03:08;;;;;;;;;;;6.50;92.80;;;;;;4993994;28;19913;-43
2022/11/13 03:05:33;;;;;;;;;;;6.50;92.80;;;;;;4993645;28;19913;-45
2022/11/13 03:08:00;;;;;;;;;;;6.50;92.90;;;;;;5006680;28;19936;-45
2022/11/13 03:10:26;;;;;;;;;;;6.50;92.90;;;;;;5002783;28;19914;-44
2022/11/13 03:12:53;;;;;;;;;;;6.50;93.00;;;;;;4993798;28;19924;-44
2022/11/13 03:15:20;;;;;;;;;;;6.50;93.00;;;;;;4992914;28;19916;-44
2022/11/13 03:17:47;;;;;;;;;;;6.60;93.00;;;;;;5003847;28;20345;-45
2022/11/13 03:20:12;;;;;;;;;;;6.60;93.20;;;;;;5012336;28;19967;-48
2022/11/13 03:22:38;;;;;;;;;;;6.60;93.20;;;;;;5010703;28;19960;-44
2022/11/13 03:25:04;;;;;;;;;;;6.60;93.20;;;;;;5011661;28;20277;-45
2022/11/13 03:27:31;;;;;;;;;;;6.60;93.10;;;;;;5012563;28;20626;-45
2022/11/13 03:30:00;;;;;;;;;;;6.60;93.10;;;;;;5011143;28;20525;-44
2022/11/13 03:32:27;;;;;;;;;;;6.60;93.10;;;;;;5001141;28;19920;-44
2022/11/13 03:34:56;;;;;;;;;;;6.50;93.10;;;;;;5002871;28;19913;-45
2022/11/13 03:37:22;;;;;;;;;;;6.60;93.30;;;;;;5010625;28;19914;-44
2022/11/13 03:39:48;;;;;;;;;;;6.70;93.40;;;;;;5024367;28;19924;-45
2022/11/13 03:42:15;;;;;;;;;;;6.70;93.50;;;;;;4996802;28;19905;-45
2022/11/13 03:44:41;;;;;;;;;;;6.80;93.50;;;;;;5000779;28;19954;-44
2022/11/13 03:47:06;;;;;;;;;;;6.80;93.50;;;;;;5012231;28;19917;-44
2022/11/13 03:49:33;;;;;;;;;;;6.80;93.40;;;;;;5005071;28;19932;-45
2022/11/13 03:51:58;;;;;;;;;;;6.70;93.40;;;;;;4992587;28;19910;-45
2022/11/13 03:54:25;;;;;;;;;;;6.70;93.30;;;;;;5008724;28;19909;-46
2022/11/13 03:56:56;;;;;;;;;;;6.70;93.30;;;;;;5009660;28;19988;-45
2022/11/13 03:59:25;;;;;;;;;;;6.70;93.30;;;;;;5004182;28;19918;-45
2022/11/13 04:01:52;;;;;;;;;;;6.70;93.30;;;;;;5011243;28;19956;-46
2022/11/13 04:04:19;;;;;;;;;;;6.70;93.40;;;;;;5011555;28;20331;-46
2022/11/13 04:06:46;;;;;;;;;;;6.70;93.40;;;;;;5011678;28;20342;-46
2022/11/13 04:09:16;;;;;;;;;;;6.80;93.30;;;;;;5015340;28;19983;-45
2022/11/13 04:11:43;;;;;;;;;;;6.70;93.30;;;;;;5013367;28;19913;-45
2022/11/13 04:14:10;;;;;;;;;;;6.80;93.20;;;;;;5015197;28;19991;-47
2022/11/13 04:16:37;;;;;;;;;;;6.80;93.10;;;;;;5014368;28;19941;-46
2022/11/13 04:19:02;;;;;;;;;;;6.70;93.00;;;;;;5016104;28;19909;-45
2022/11/13 04:21:29;;;;;;;;;;;6.80;92.90;;;;;;5015890;28;19984;-45
2022/11/13 04:23:56;;;;;;;;;;;6.70;92.80;;;;;;5012260;28;19937;-45
2022/11/13 04:26:23;;;;;;;;;;;6.70;92.60;;;;;;4999399;28;19927;-45
2022/11/13 04:28:50;;;;;;;;;;;6.70;92.50;;;;;;4996682;28;20254;-45
2022/11/13 04:31:17;;;;;;;;;;;6.60;92.50;;;;;;4996418;28;19964;-45
2022/11/13 04:33:43;;;;;;;;;;;6.50;92.40;;;;;;5007096;28;19917;-47
2022/11/13 04:36:10;;;;;;;;;;;6.50;92.40;;;;;;5014182;28;19960;-48
2022/11/13 04:38:37;;;;;;;;;;;6.50;92.30;;;;;;5013220;28;19917;-45
2022/11/13 04:43:46;;;;;;;;;;;6.40;92.20;;;;;;5015582;28;19923;-46
2022/11/13 04:46:13;;;;;;;;;;;6.40;92.40;;;;;;5005940;28;19909;-46
2022/11/13 04:48:40;;;;;;;;;;;6.40;92.40;;;;;;5011746;28;19913;-48
2022/11/13 04:51:07;;;;;;;;;;;6.40;92.50;;;;;;5013683;28;20278;-45
2022/11/13 04:53:33;;;;;;;;;;;6.30;92.50;;;;;;5006509;28;19951;-46
2022/11/13 04:56:00;;;;;;;;;;;6.40;92.50;;;;;;5009231;28;19938;-45
2022/11/13 04:58:27;;;;;;;;;;;6.40;92.50;;;;;;4995879;28;20032;-47
2022/11/13 05:00:54;;;;;;;;;;;6.40;92.50;;;;;;5011052;28;20339;-46
2022/11/13 05:03:19;;;;;;;;;;;6.40;92.40;;;;;;5001952;28;20291;-46
2022/11/13 05:05:45;;;;;;;;;;;6.40;92.40;;;;;;5011232;28;19920;-46
2022/11/13 05:08:12;;;;;;;;;;;6.40;92.30;;;;;;4996186;28;19913;-46
2022/11/13 05:10:39;;;;;;;;;;;6.30;92.40;;;;;;5003207;28;19920;-46
2022/11/13 05:13:04;;;;;;;;;;;6.30;92.30;;;;;;4995853;28;19909;-49
2022/11/13 05:15:31;;;;;;;;;;;6.20;92.20;;;;;;5010187;28;19916;-46
2022/11/13 05:17:57;;;;;;;;;;;6.20;92.20;;;;;;4994593;28;19918;-47
2022/11/13 05:20:22;;;;;;;;;;;6.20;92.20;;;;;;5011768;28;19940;-46
2022/11/13 05:22:49;;;;;;;;;;;6.20;92.40;;;;;;5015446;28;19913;-46
2022/11/13 05:25:16;;;;;;;;;;;6.20;92.40;;;;;;5013165;28;19930;-46
2022/11/13 05:27:43;;;;;;;;;;;6.10;92.30;;;;;;5010914;28;19910;-47
2022/11/13 05:30:10;;;;;;;;;;;6.20;92.30;;;;;;5010889;28;19911;-48
2022/11/13 05:32:37;;;;;;;;;;;6.10;92.20;;;;;;5014935;28;19910;-49
2022/11/13 05:35:04;;;;;;;;;;;6.00;92.20;;;;;;5013019;28;19960;-46
2022/11/13 05:37:31;;;;;;;;;;;6.00;92.10;;;;;;5014362;28;20330;-48
2022/11/13 05:39:57;;;;;;;;;;;5.90;92.10;;;;;;5013272;28;19916;-47
2022/11/13 05:42:24;;;;;;;;;;;5.90;92.10;;;;;;5014307;28;20007;-47
2022/11/13 05:44:51;;;;;;;;;;;5.90;92.10;;;;;;5002953;28;19910;-47
2022/11/13 05:47:17;;;;;;;;;;;5.90;92.10;;;;;;5010486;28;19914;-48
2022/11/13 05:49:44;;;;;;;;;;;5.80;92.00;;;;;;5006046;28;19917;-46
2022/11/13 05:52:10;;;;;;;;;;;5.80;91.90;;;;;;4994800;28;19936;-46
2022/11/13 05:54:37;;;;;;;;;;;5.70;91.90;;;;;;5004023;28;20331;-47
2022/11/13 05:57:04;;;;;;;;;;;5.70;91.90;;;;;;5014608;28;20331;-48
2022/11/13 05:59:33;;;;;;;;;;;5.60;91.90;;;;;;5011841;28;19916;-48
2022/11/13 06:01:59;;;;;;;;;;;5.60;91.80;;;;;;5012930;28;19920;-48
2022/11/13 06:04:26;;;;;;;;;;;5.50;91.80;;;;;;5014228;28;19912;-47
2022/11/13 06:06:53;;;;;;;;;;;5.50;91.80;;;;;;5014642;28;20273;-47
2022/11/13 06:09:20;;;;;;;;;;;5.50;91.80;;;;;;5009908;28;20274;-50
2022/11/13 06:11:47;;;;;;;;;;;5.40;91.80;;;;;;5004300;28;19976;-48
2022/11/13 06:14:14;;;;;;;;;;;5.40;91.70;;;;;;5011946;28;19916;-47
2022/11/13 06:16:41;;;;;;;;;;;5.40;91.70;;;;;;5010799;28;20022;-49
2022/11/13 06:19:09;;;;;;;;;;;5.40;91.70;;;;;;5012662;28;19919;-48
2022/11/13 06:21:36;;;;;;;;;;;5.30;91.80;;;;;;5010990;28;20672;-47
2022/11/13 06:24:05;;;;;;;;;;;5.30;91.70;;;;;;5012447;28;19913;-48
2022/11/13 06:26:34;;;;;;;;;;;5.30;91.70;;;;;;5008550;28;20235;-47
2022/11/13 06:29:01;;;;;;;;;;;5.20;91.60;;;;;;5011961;28;20003;-48
2022/11/13 06:31:30;;;;;;;;;;;5.20;91.70;;;;;;5013539;28;19909;-47
2022/11/13 06:34:00;;;;;;;;;;;5.20;91.50;;;;;;5010466;28;19925;-49
2022/11/13 06:36:31;;;;;;;;;;;5.20;91.50;;;;;;5010770;28;19960;-47
2022/11/13 06:38:58;;;;;;;;;;;5.20;91.60;;;;;;5009905;28;19920;-50
2022/11/13 06:41:30;;;;;;;;;;;5.10;91.60;;;;;;5012158;28;19905;-47
2022/11/13 06:43:57;;;;;;;;;;;5.10;91.70;;;;;;5010943;28;19906;-47
2022/11/13 06:46:28;;;;;;;;;;;5.20;91.80;;;;;;5012099;28;19954;-47
2022/11/13 06:48:55;;;;;;;;;;;5.10;91.70;;;;;;5010117;28;19905;-47
2022/11/13 06:51:27;;;;;;;;;;;5.10;91.70;;;;;;5012562;28;20242;-51
2022/11/13 06:53:55;;;;;;;;;;;5.10;91.70;;;;;;4998581;28;19913;-49
2022/11/13 06:56:22;;;;;;;;;;;5.10;91.70;;;;;;5011614;28;20299;-48
2022/11/13 06:58:49;;;;;;;;;;;5.20;91.80;;;;;;5005385;28;19945;-47
2022/11/13 07:01:16;;;;;;;;;;;5.20;91.80;;;;;;4993953;28;19956;-47
2022/11/13 07:03:44;;;;;;;;;;;5.30;91.90;;;;;;5003104;28;19949;-48
2022/11/13 07:06:12;;;;;;;;;;;5.30;92.00;;;;;;5021206;28;19913;-47
2022/11/13 07:08:42;;;;;;;;;;;5.40;92.00;;;;;;5012840;28;19952;-47
2022/11/13 07:11:13;;;;;;;;;;;5.40;92.00;;;;;;5011694;28;19920;-47
2022/11/13 07:13:43;;;;;;;;;;;5.40;92.10;;;;;;5009190;28;19948;-48
2022/11/13 07:16:10;;;;;;;;;;;5.50;92.10;;;;;;4993433;28;19910;-49
2022/11/13 07:18:38;;;;;;;;;;;5.60;92.10;;;;;;5008915;28;19909;-47
2022/11/13 07:21:09;;;;;;;;;;;5.60;92.00;;;;;;5006747;28;20275;-51
2022/11/13 07:23:35;;;;;;;;;;;5.70;92.00;;;;;;5012341;28;19919;-48
2022/11/13 07:26:03;;;;;;;;;;;5.70;91.90;;;;;;5010108;28;20013;-48
2022/11/13 07:28:29;;;;;;;;;;;5.70;91.90;;;;;;5008149;28;20004;-47
2022/11/13 07:31:00;;;;;;;;;;;5.70;91.90;;;;;;5009744;28;19923;-47
2022/11/13 07:33:26;;;;;;;;;;;5.70;91.80;;;;;;5009249;28;20000;-50
2022/11/13 07:35:57;;;;;;;;;;;5.70;91.80;;;;;;5011237;28;19905;-50
2022/11/13 07:38:24;;;;;;;;;;;5.70;91.80;;;;;;5012687;28;20350;-50
2022/11/13 07:40:51;;;;;;;;;;;5.70;91.80;;;;;;5013287;28;20305;-47
2022/11/13 07:43:17;;;;;;;;;;;5.70;91.80;;;;;;5016974;28;20511;-47
2022/11/13 07:45:44;;;;;;;;;;;5.80;91.90;;;;;;5016343;28;20275;-47
2022/11/13 07:48:11;;;;;;;;;;;5.70;92.00;;;;;;5014625;28;19956;-47
2022/11/13 07:50:38;;;;;;;;;;;5.70;91.90;;;;;;5014772;28;19909;-47
2022/11/13 07:53:06;;;;;;;;;;;5.80;91.90;;;;;;5009395;28;20255;-47
2022/11/13 07:55:33;;;;;;;;;;;5.80;92.00;;;;;;5011927;28;19913;-47
2022/11/13 07:58:01;;;;;;;;;;;5.90;92.00;;;;;;5013776;28;20364;-47
2022/11/13 08:00:28;;;;;;;;;;;5.90;92.00;;;;;;5014091;28;19925;-49
2022/11/13 08:02:55;;;;;;;;;;;5.90;92.00;;;;;;5014730;28;19909;-48
2022/11/13 08:05:22;;;;;;;;;;;5.90;91.90;;;;;;5015703;28;19909;-48
2022/11/13 08:07:50;;;;;;;;;;;5.90;91.70;;;;;;5013014;28;20315;-48
2022/11/13 08:10:17;;;;;;;;;;;5.90;91.80;;;;;;5011561;28;20903;-47
2022/11/13 08:12:47;;;;;;;;;;;6.00;91.80;;;;;;5013406;28;20380;-49
2022/11/13 08:15:14;;;;;;;;;;;6.00;91.80;;;;;;5015554;28;19909;-48
2022/11/13 08:17:41;;;;;;;;;;;6.00;91.80;;;;;;5014668;28;19964;-47
2022/11/13 08:20:07;;;;;;;;;;;6.10;91.70;;;;;;5012636;28;19913;-48
2022/11/13 08:22:35;;;;;;;;;;;6.20;91.90;;;;;;5013766;28;19983;-47
2022/11/13 08:25:03;;;;;;;;;;;6.30;92.10;;;;;;5012422;28;19921;-47
2022/11/13 08:27:30;;;;;;;;;;;6.40;92.10;;;;;;5013721;28;19941;-47
2022/11/13 08:29:56;;;;;;;;;;;6.50;92.20;;;;;;5010859;28;19913;-47
2022/11/13 08:32:22;;;;;;;;;;;6.60;92.30;;;;;;5011819;28;19905;-47
2022/11/13 08:34:48;;;;;;;;;;;6.80;92.50;;;;;;5014499;28;19917;-47
2022/11/13 08:37:15;;;;;;;;;;;6.80;92.30;;;;;;5012253;28;20298;-47
2022/11/13 08:39:42;;;;;;;;;;;6.90;92.30;;;;;;5015324;28;19917;-47
2022/11/13 08:42:11;;;;;;;;;;;7.10;92.50;;;;;;5010245;28;20077;-47
2022/11/13 08:44:38;;;;;;;;;;;7.30;92.60;;;;;;5015026;28;19913;-50
2022/11/13 08:47:05;;;;;;;;;;;7.40;92.40;;;;;;5008537;28;19912;-46
2022/11/13 08:49:31;;;;;;;;;;;7.50;92.40;;;;;;5014481;28;19921;-48
2022/11/13 08:51:58;;;;;;;;;;;7.80;92.40;;;;;;5014536;28;19921;-46
2022/11/13 08:54:28;;;;;;;;;;;7.90;92.20;;;;;;5015423;28;20314;-47
2022/11/13 08:56:55;;;;;;;;;;;8.20;92.30;;;;;;5013306;28;19917;-46
2022/11/13 08:59:22;;;;;;;;;;;8.40;91.70;;;;;;5015347;28;20334;-45
2022/11/13 09:01:49;;;;;;;;;;;8.50;91.50;;;;;;5010131;28;19914;-45
2022/11/13 09:04:16;;;;;;;;;;;8.70;91.10;;;;;;4995751;28;19937;-46
2022/11/13 09:06:42;;;;;;;;;;;8.90;90.70;;;;;;5005851;28;19932;-45
2022/11/13 09:09:09;;;;;;;;;;;9.10;90.20;;;;;;5015079;28;19909;-45
2022/11/13 09:11:40;;;;;;;;;;;9.20;89.60;;;;;;5004404;28;20263;-45
2022/11/13 09:14:07;;;;;;;;;;;9.30;89.10;;;;;;5014650;28;19936;-45
2022/11/13 09:16:33;;;;;;;;;;;9.50;88.90;;;;;;5008134;28;19913;-46
2022/11/13 09:19:00;;;;;;;;;;;9.70;88.60;;;;;;5011443;28;19920;-45
2022/11/13 09:21:26;;;;;;;;;;;9.80;87.80;;;;;;5013973;28;19952;-45
2022/11/13 09:23:51;;;;;;;;;;;9.90;88.20;;;;;;5011163;28;19944;-48
2022/11/13 09:26:19;;;;;;;;;;;10.00;87.10;;;;;;5013270;28;20305;-45
2022/11/13 09:28:48;;;;;;;;;;;10.00;86.50;;;;;;5014373;28;19906;-44
2022/11/13 09:31:15;;;;;;;;;;;10.10;86.60;;;;;;5010687;28;19914;-45
2022/11/13 09:33:42;;;;;;;;;;;10.10;85.90;;;;;;5004110;28;19944;-45
2022/11/13 09:36:15;;;;;;;;;;;10.20;86.00;;;;;;5013015;28;19924;-45
2022/11/13 09:38:42;;;;;;;;;;;10.30;85.90;;;;;;5013371;28;20336;-44
2022/11/13 09:41:16;;;;;;;;;;;10.30;86.00;;;;;;5008829;28;19913;-45
2022/11/13 09:44:00;;;;;;;;;;;10.40;85.40;;;;;;4993907;28;19909;-45
2022/11/13 09:46:44;;;;;;;;;;;10.40;85.20;;;;;;4995206;28;19928;-45
2022/11/13 09:49:14;;;;;;;;;;;10.40;85.50;;;;;;5012896;28;20305;-45
2022/11/13 09:51:45;;;;;;;;;;;10.30;85.30;;;;;;4998309;28;19919;-45
2022/11/13 09:54:13;;;;;;;;;;;10.30;85.00;;;;;;4977655;28;19929;-45
2022/11/13 09:56:45;;;;;;;;;;;10.30;85.10;;;;;;5005435;28;19913;-45
2022/11/13 09:59:34;;;;;;;;;;;10.20;84.90;;;;;;5011243;28;19921;-45
2022/11/13 10:02:19;;;;;;;;;;;10.20;85.20;;;;;;4998184;28;20089;-46
2022/11/13 10:05:04;;;;;;;;;;;10.20;84.90;;;;;;5013176;28;20271;-46
2022/11/13 10:07:48;;;;;;;;;;;10.10;84.80;;;;;;5012771;28;19913;-45
2022/11/13 10:10:16;;;;;;;;;;;10.00;84.70;;;;;;5002082;28;19914;-45
2022/11/13 10:12:45;;;;;;;;;;;10.00;85.20;;;;;;5003460;28;19913;-45
2022/11/13 10:15:13;;;;;;;;;;;10.00;84.80;;;;;;4999447;28;19913;-46
2022/11/13 10:17:50;;;;;;;;;;;10.00;85.60;;;;;;5004349;28;19918;-45
2022/11/13 10:20:45;;;;;;;;;;;10.00;85.40;;;;;;5012677;28;20001;-46
2022/11/13 10:23:28;;;;;;;;;;;10.00;85.20;;;;;;4999604;28;19963;-45
2022/11/13 10:25:59;;;;;;;;;;;10.00;85.10;;;;;;5012507;28;19909;-47
2022/11/13 10:28:26;;;;;;;;;;;10.00;85.30;;;;;;5010954;28;19920;-45
2022/11/13 10:30:53;;;;;;;;;;;10.10;85.30;;;;;;5013402;28;19909;-44
2022/11/13 10:33:21;;;;;;;;;;;10.00;85.30;;;;;;5010303;28;19971;-46
2022/11/13 10:36:05;;;;;;;;;;;10.00;85.20;;;;;;5011360;28;19913;-46
2022/11/13 10:38:49;;;;;;;;;;;10.00;85.60;;;;;;5010847;28;19968;-46
2022/11/13 10:41:17;;;;;;;;;;;9.90;86.10;;;;;;5011456;28;19905;-45
2022/11/13 10:43:57;;;;;;;;;;;9.90;86.00;;;;;;5009271;28;19932;-46
2022/11/13 10:46:25;;;;;;;;;;;10.00;85.80;;;;;;5012456;28;19909;-45
2022/11/13 10:48:52;;;;;;;;;;;10.10;86.00;;;;;;5011466;28;19991;-46
2022/11/13 10:51:20;;;;;;;;;;;10.10;85.80;;;;;;5000245;28;19964;-47
2022/11/13 10:53:46;;;;;;;;;;;10.20;85.80;;;;;;4998554;28;19913;-45
2022/11/13 10:56:31;;;;;;;;;;;10.20;85.40;;;;;;5011770;28;19910;-45
2022/11/13 10:59:15;;;;;;;;;;;10.20;84.90;;;;;;5010867;28;20353;-46
2022/11/13 11:01:43;;;;;;;;;;;10.40;85.10;;;;;;5005499;28;19913;-46
2022/11/13 11:04:18;;;;;;;;;;;10.30;84.40;;;;;;5019587;28;19910;-45
2022/11/13 11:06:45;;;;;;;;;;;10.40;84.40;;;;;;4994066;28;19906;-45
2022/11/13 11:09:25;;;;;;;;;;;10.40;84.70;;;;;;5006418;28;19952;-46
2022/11/13 11:12:15;;;;;;;;;;;10.40;84.80;;;;;;5002413;28;19932;-46
2022/11/13 11:14:43;;;;;;;;;;;10.40;84.90;;;;;;5010795;28;19920;-45
2022/11/13 11:17:11;;;;;;;;;;;10.40;85.00;;;;;;5012136;28;19918;-45
2022/11/13 11:19:40;;;;;;;;;;;10.30;85.20;;;;;;5008037;28;19914;-45
2022/11/13 11:22:14;;;;;;;;;;;10.30;85.20;;;;;;5008372;28;19926;-45
2022/11/13 11:25:07;;;;;;;;;;;10.30;85.10;;;;;;5005758;28;19909;-46
2022/11/13 11:27:42;;;;;;;;;;;10.30;85.10;;;;;;5002989;28;19909;-46
2022/11/13 11:30:26;;;;;;;;;;;10.30;84.50;;;;;;5013200;28;19913;-45
2022/11/13 11:32:54;;;;;;;;;;;10.40;84.40;;;;;;5006603;28;19981;-45
2022/11/13 11:35:23;;;;;;;;;;;10.20;83.90;;;;;;5005381;28;19913;-46
2022/11/13 11:38:07;;;;;;;;;;;10.30;84.10;;;;;;5010107;28;19917;-45
2022/11/13 11:40:38;;;;;;;;;;;10.20;83.90;;;;;;5027192;28;19923;-47
2022/11/13 11:43:10;;;;;;;;;;;10.10;84.20;;;;;;5009422;28;20004;-45
2022/11/13 11:45:46;;;;;;;;;;;10.20;84.30;;;;;;5009956;28;19921;-46
2022/11/13 11:48:17;;;;;;;;;;;10.20;84.30;;;;;;5009324;28;20216;-46
2022/11/13 11:51:01;;;;;;;;;;;10.20;84.10;;;;;;5023601;28;19913;-45
2022/11/13 11:53:39;;;;;;;;;;;10.30;84.50;;;;;;5011326;28;19914;-45
2022/11/13 11:56:24;;;;;;;;;;;10.30;84.40;;;;;;5009334;28;20366;-46
2022/11/13 11:59:04;;;;;;;;;;;10.20;84.50;;;;;;5009992;28;20230;-44
2022/11/13 12:01:40;;;;;;;;;;;10.20;84.80;;;;;;5002177;28;19924;-45
2022/11/13 12:04:06;;;;;;;;;;;10.20;84.80;;;;;;5009103;28;21877;-46
2022/11/13 12:06:51;;;;;;;;;;;10.30;84.50;;;;;;5004623;28;20412;-45
2022/11/13 12:09:32;;;;;;;;;;;10.30;84.40;;;;;;4996759;28;19953;-46
2022/11/13 12:12:10;;;;;;;;;;;10.30;84.50;;;;;;4998675;28;19925;-45
2022/11/13 12:14:54;;;;;;;;;;;10.40;84.70;;;;;;5001199;28;20604;-44
2022/11/13 12:17:38;;;;;;;;;;;10.30;84.40;;;;;;4992607;28;20020;-45
2022/11/13 12:20:22;;;;;;;;;;;10.40;84.80;;;;;;4991638;28;19917;-44
2022/11/13 12:23:07;;;;;;;;;;;10.40;84.80;;;;;;4994679;28;19917;-45
2022/11/13 12:25:50;;;;;;;;;;;10.40;85.00;;;;;;4998360;28;19918;-45
2022/11/13 12:28:18;;;;;;;;;;;10.50;85.10;;;;;;5004914;28;19913;-45
2022/11/13 12:30:47;;;;;;;;;;;10.50;84.70;;;;;;4996247;28;19920;-46
2022/11/13 12:33:26;;;;;;;;;;;10.40;84.60;;;;;;4995660;28;20566;-45
2022/11/13 12:35:53;;;;;;;;;;;10.40;84.30;;;;;;4996093;28;19914;-47
2022/11/13 12:38:22;;;;;;;;;;;10.40;84.20;;;;;;5001168;28;19914;-46
2022/11/13 12:41:06;;;;;;;;;;;10.40;84.20;;;;;;5005969;28;19917;-46
2022/11/13 12:43:50;;;;;;;;;;;10.50;83.80;;;;;;4997239;28;19968;-47
2022/11/13 12:46:16;;;;;;;;;;;10.50;84.20;;;;;;4997745;28;20041;-46
2022/11/13 12:48:44;;;;;;;;;;;10.50;84.50;;;;;;4998615;28;20016;-46
2022/11/13 12:54:27;;;;;;;;;;;10.50;84.80;;;;;;4997588;28;19960;-46
2022/11/13 12:56:52;;;;;;;;;;;10.60;84.80;;;;;;4999761;28;19910;-47
2022/11/13 12:59:21;;;;;;;;;;;10.60;84.60;;;;;;5007384;28;19917;-45
2022/11/13 13:01:55;;;;;;;;;;;10.60;84.40;;;;;;5001459;28;20252;-45
2022/11/13 13:04:36;;;;;;;;;;;10.70;84.50;;;;;;5002168;28;20271;-45
2022/11/13 13:07:04;;;;;;;;;;;10.70;84.70;;;;;;5010620;28;19992;-45
2022/11/13 13:09:49;;;;;;;;;;;10.70;84.20;;;;;;5004244;28;19979;-45
2022/11/13 13:12:34;;;;;;;;;;;10.80;84.30;;;;;;5007498;28;19913;-45
2022/11/13 13:15:09;;;;;;;;;;;10.70;83.90;;;;;;4998781;28;20024;-45
2022/11/13 13:17:35;;;;;;;;;;;10.70;83.50;;;;;;4999967;28;19924;-45
2022/11/13 13:20:13;;;;;;;;;;;10.70;83.80;;;;;;5010486;28;19979;-47
2022/11/13 13:22:40;;;;;;;;;;;10.70;83.70;;;;;;5004927;28;19917;-46
2022/11/13 13:25:27;;;;;;;;;;;10.70;84.50;;;;;;5004908;28;20088;-45
2022/11/13 13:27:58;;;;;;;;;;;10.80;84.60;;;;;;5007639;28;19920;-45
2022/11/13 13:30:25;;;;;;;;;;;10.80;85.10;;;;;;5011021;28;20247;-45
2022/11/13 13:33:09;;;;;;;;;;;10.70;85.10;;;;;;4997208;28;19917;-45
2022/11/13 13:35:55;;;;;;;;;;;10.80;85.20;;;;;;5008630;28;19936;-45
2022/11/13 13:38:34;;;;;;;;;;;10.70;85.10;;;;;;5002869;28;19960;-45
2022/11/13 13:41:18;;;;;;;;;;;10.70;85.10;;;;;;5003993;28;20033;-48
2022/11/13 13:44:02;;;;;;;;;;;10.70;85.40;;;;;;5000157;28;19910;-45
2022/11/13 13:46:33;;;;;;;;;;;10.70;85.30;;;;;;5007844;28;19913;-45
2022/11/13 13:49:04;;;;;;;;;;;10.70;85.50;;;;;;4999219;28;20263;-46
2022/11/13 13:51:35;;;;;;;;;;;10.70;85.70;;;;;;5008113;28;20016;-45
2022/11/13 13:54:01;;;;;;;;;;;10.70;85.50;;;;;;4994547;28;19925;-45
2022/11/13 13:56:27;;;;;;;;;;;10.60;85.50;;;;;;5001215;28;19909;-45
2022/11/13 13:58:53;;;;;;;;;;;10.60;85.40;;;;;;5006487;28;19959;-45
2022/11/13 14:01:30;;;;;;;;;;;10.60;85.60;;;;;;4998857;28;19959;-45
2022/11/13 14:04:11;;;;;;;;;;;10.60;85.60;;;;;;5001587;28;20378;-45
2022/11/13 14:06:58;;;;;;;;;;;10.60;85.70;;;;;;4999701;28;19910;-45
2022/11/13 14:09:26;;;;;;;;;;;10.60;86.00;;;;;;4994546;28;19909;-45
2022/11/13 14:12:16;;;;;;;;;;;10.60;85.90;;;;;;5003140;28;19953;-46
2022/11/13 14:14:42;;;;;;;;;;;10.60;86.10;;;;;;5008036;28;19909;-46
2022/11/13 14:17:27;;;;;;;;;;;10.60;86.40;;;;;;5007471;28;20315;-45
2022/11/13 14:20:13;;;;;;;;;;;10.60;86.50;;;;;;5007009;28;19918;-48
2022/11/13 14:25:48;;;;;;;;;;;10.60;86.50;;;;;;5003819;28;20634;-45
2022/11/13 14:28:16;;;;;;;;;;;10.50;86.60;;;;;;5013094;28;19909;-45
2022/11/13 14:33:46;;;;;;;;;;;10.50;86.40;;;;;;5001858;28;20472;-45
2022/11/13 14:36:23;;;;;;;;;;;10.50;86.30;;;;;;5011256;28;19924;-46
2022/11/13 14:38:51;;;;;;;;;;;10.40;86.00;;;;;;5001944;28;19921;-46
2022/11/13 14:41:25;;;;;;;;;;;10.40;85.90;;;;;;5002953;28;20324;-45
2022/11/13 14:43:53;;;;;;;;;;;10.40;85.60;;;;;;4994117;28;19929;-45
2022/11/13 14:46:43;;;;;;;;;;;10.40;85.30;;;;;;5000679;28;19972;-46
2022/11/13 14:49:14;;;;;;;;;;;10.40;85.20;;;;;;5012070;28;19972;-45
2022/11/13 14:51:41;;;;;;;;;;;10.40;85.10;;;;;;5012400;28;20326;-45
2022/11/13 14:54:25;;;;;;;;;;;10.40;85.20;;;;;;5009287;28;19913;-47
2022/11/13 14:56:52;;;;;;;;;;;10.30;85.40;;;;;;5001987;28;19960;-46